Current Weather

San Francisco International a

San Francisco International a, California (KSFO)

Report from: Thursday, May 19, 2022 10:56 AM PDT
Current time: Thursday, May 19, 2022 11:47 AM PDT

Nearby weather
Weather history
Weather forecast

Temperature18.3°C (64.9°F)
Dew point7.8°C (46.0°F)
Winds 21 kts (10.8 m/s, 24.2 mph) West (280°)
Peak wind 30 kts (15.4 m/s, 34.5 mph) West (280°) at 10:06
Visibility10 mi. (16.1 km)
Clouds Scattered clouds 20,000 ft. (6,096 m)
Altimeter30.00 in.Hg (1016 mB)
Relative humidity50 %
Density altitude451 ft. (137 m)
Sea-level pressure101.6 kPa (1016 mB, 30.00 in.Hg)
Max temp last 6 hours18.3°C (64.9°F)
Min temp last 6 hours12.2°C (54.0°F)
Remarks Automated weather observing station with precipitation discriminator
Pressure falling more quickly
Flight conditions Visual Meteorological Conditions
Raw dataKSFO 191756Z 28021KT 10SM SCT200 18/08 A3000 RMK AO2 PK WND 28030/1706 SLP158 T01830078 10183 20122 58003
An error has occurred. This application may no longer respond until reloaded. Reload 🗙